Aviation Digital Data Service (ADDS)

Output produced by TAFs form (0933 UTC 25 November 2017)
found at http://www.aviationweather.gov/adds/tafs/
 
METAR text: RJCN 250900Z 18004KT 9999 FEW025 M03/M13 Q1017
Conditions at: RJCN (NAKASHIBETSU ARP, JP) observed 0900 UTC 25 November 2017
Temperature: -3.0°C (27°F)
Dewpoint: -13.0°C (9°F) [RH = 46%]
Pressure (altimeter): 30.03 inches Hg (1017.0 mb)
Winds: from the S (180 degrees) at 5 MPH (4 knots; 2.1 m/s)
Visibility: 6 or more miles (10+ km)
Ceiling: at least 12,000 feet AGL
Clouds: few clouds at 2500 feet AGL
Weather: no significant weather observed at this time